createdAt,value
2018-04-30T00:01:21.119Z,100614.23
2018-04-30T00:03:48.577Z,100601.59
2018-04-30T00:06:16.130Z,100603.81
2018-04-30T00:08:43.595Z,100598.59
2018-04-30T00:11:11.045Z,100591.06
2018-04-30T00:13:38.470Z,100590.48
2018-04-30T00:16:05.913Z,100595.30
2018-04-30T00:18:33.365Z,100582.37
2018-04-30T00:21:01.772Z,100583.32
2018-04-30T00:23:29.261Z,100582.69
2018-04-30T00:25:56.678Z,100582.88
2018-04-30T00:28:24.175Z,100576.81
2018-04-30T00:30:51.621Z,100577.44
2018-04-30T00:33:19.062Z,100581.12
2018-04-30T00:35:46.636Z,100580.88
2018-04-30T00:38:14.081Z,100564.94
2018-04-30T00:40:41.525Z,100560.09
2018-04-30T00:43:08.965Z,100556.94
2018-04-30T00:45:36.470Z,100547.90
2018-04-30T00:48:03.915Z,100541.61
2018-04-30T00:50:31.413Z,100538.09
2018-04-30T00:52:58.941Z,100533.48
2018-04-30T00:55:27.286Z,100529.49
2018-04-30T00:57:54.737Z,100524.44
2018-04-30T01:00:22.230Z,100514.70
2018-04-30T01:02:51.643Z,100520.98
2018-04-30T01:05:19.093Z,100520.94
2018-04-30T01:07:46.509Z,100517.75
2018-04-30T01:10:14.922Z,100514.03
2018-04-30T01:12:43.279Z,100509.45
2018-04-30T01:15:10.730Z,100509.95
2018-04-30T01:17:38.218Z,100500.34
2018-04-30T01:20:05.667Z,100500.55
2018-04-30T01:22:33.091Z,100493.53
2018-04-30T01:25:00.540Z,100491.40
2018-04-30T01:27:27.979Z,100486.09
2018-04-30T01:29:55.430Z,100483.59
2018-04-30T01:32:22.849Z,100477.11
2018-04-30T01:34:50.416Z,100473.39
2018-04-30T01:37:17.870Z,100462.34
2018-04-30T01:39:45.326Z,100450.11
2018-04-30T01:42:12.781Z,100451.39
2018-04-30T01:44:40.201Z,100452.98
2018-04-30T01:47:07.646Z,100443.73
2018-04-30T01:49:35.154Z,100441.75
2018-04-30T01:52:02.608Z,100440.37
2018-04-30T01:54:30.026Z,100432.45
2018-04-30T01:56:57.490Z,100426.11
2018-04-30T01:59:24.981Z,100428.75
2018-04-30T02:01:52.426Z,100421.20
2018-04-30T02:04:22.818Z,100415.70
2018-04-30T02:06:50.266Z,100413.50
2018-04-30T02:09:17.691Z,100410.61
2018-04-30T02:11:45.146Z,100401.45
2018-04-30T02:14:12.555Z,100393.37
2018-04-30T02:16:40.011Z,100391.86
2018-04-30T02:19:07.501Z,100385.99
2018-04-30T02:21:34.955Z,100379.06
2018-04-30T02:24:03.446Z,100377.61
2018-04-30T02:26:30.989Z,100364.22
2018-04-30T02:28:58.413Z,100362.23
2018-04-30T02:31:27.851Z,100349.97
2018-04-30T02:33:55.317Z,100348.16
2018-04-30T02:36:23.681Z,100342.23
2018-04-30T02:38:51.146Z,100331.06
2018-04-30T02:41:19.511Z,100313.02
2018-04-30T02:43:46.986Z,100305.64
2018-04-30T02:46:14.409Z,100294.70
2018-04-30T02:48:41.866Z,100297.43
2018-04-30T02:51:09.301Z,100287.42
2018-04-30T02:53:36.742Z,100283.50
2018-04-30T02:56:04.170Z,100273.28
2018-04-30T02:58:31.620Z,100266.89
2018-04-30T03:00:59.042Z,100256.67
2018-04-30T03:03:26.533Z,100253.81
2018-04-30T03:05:55.905Z,100243.29
2018-04-30T03:08:23.353Z,100237.41
2018-04-30T03:10:50.853Z,100232.73
2018-04-30T03:13:18.411Z,100229.56
2018-04-30T03:15:45.839Z,100219.16
2018-04-30T03:18:13.275Z,100208.88
2018-04-30T03:20:41.703Z,100208.50
2018-04-30T03:23:09.130Z,100201.47
2018-04-30T03:25:37.540Z,100200.38
2018-04-30T03:28:04.987Z,100189.61
2018-04-30T03:30:32.435Z,100185.83
2018-04-30T03:32:59.854Z,100176.36
2018-04-30T03:35:27.294Z,100169.51
2018-04-30T03:37:55.704Z,100164.53
2018-04-30T03:40:23.203Z,100158.09
2018-04-30T03:42:50.666Z,100154.14
2018-04-30T03:45:18.189Z,100157.08
2018-04-30T03:47:45.533Z,100159.30
2018-04-30T03:50:12.982Z,100149.00
2018-04-30T03:52:40.485Z,100154.36
2018-04-30T03:55:07.938Z,100141.70
2018-04-30T03:57:35.400Z,100133.02
2018-04-30T04:00:02.828Z,100123.28
2018-04-30T04:02:42.073Z,100122.85
2018-04-30T04:05:21.217Z,100099.53
2018-04-30T04:07:48.669Z,100095.44
2018-04-30T04:10:16.096Z,100088.39
2018-04-30T04:12:43.614Z,100075.91
2018-04-30T04:15:10.981Z,100064.36
2018-04-30T04:17:39.526Z,100052.50
2018-04-30T04:20:06.947Z,100044.88
2018-04-30T04:22:34.439Z,100041.51
2018-04-30T04:25:01.863Z,100040.97
2018-04-30T04:27:31.409Z,100030.14
2018-04-30T04:29:58.853Z,100024.88
2018-04-30T04:32:26.307Z,100022.95
2018-04-30T04:34:53.730Z,100013.58
2018-04-30T04:37:21.182Z,100013.67
2018-04-30T04:39:48.673Z,100000.72
2018-04-30T04:42:16.140Z,99995.22
2018-04-30T04:44:43.558Z,100007.50
2018-04-30T04:47:11.916Z,99985.39
2018-04-30T04:49:39.329Z,99983.51
2018-04-30T04:52:06.777Z,99983.23
2018-04-30T04:54:35.157Z,99980.16
2018-04-30T04:57:02.618Z,99970.52
2018-04-30T04:59:30.062Z,99968.46
2018-04-30T05:01:57.473Z,99960.29
2018-04-30T05:04:24.929Z,99951.48
2018-04-30T05:06:52.342Z,99951.23
2018-04-30T05:09:19.781Z,99955.77
2018-04-30T05:11:47.205Z,99949.31
2018-04-30T05:14:14.653Z,99935.73
2018-04-30T05:16:42.169Z,99926.16
2018-04-30T05:19:09.618Z,99914.79
2018-04-30T05:21:37.037Z,99923.76
2018-04-30T05:24:04.478Z,99938.02
2018-04-30T05:26:31.994Z,99933.80
2018-04-30T05:28:59.457Z,99920.64
2018-04-30T05:31:26.869Z,99933.11
2018-04-30T05:33:54.366Z,99934.78
2018-04-30T05:36:22.701Z,99926.60
2018-04-30T05:38:50.159Z,99923.23
2018-04-30T05:41:17.573Z,99926.11
2018-04-30T05:43:45.015Z,99919.25
2018-04-30T05:46:12.466Z,99920.20
2018-04-30T05:48:39.922Z,99900.64
2018-04-30T05:51:08.293Z,99889.82
2018-04-30T05:53:35.717Z,99886.78
2018-04-30T05:56:03.158Z,99876.42
2018-04-30T05:58:30.570Z,99866.19
2018-04-30T06:00:58.026Z,99865.20
2018-04-30T06:03:26.376Z,99867.75
2018-04-30T06:05:53.817Z,99856.34
2018-04-30T06:08:21.235Z,99851.42
2018-04-30T06:10:49.174Z,99836.08
2018-04-30T06:13:16.657Z,99817.19
2018-04-30T06:15:44.202Z,99808.22
2018-04-30T06:18:11.641Z,99807.81
2018-04-30T06:20:39.074Z,99791.23
2018-04-30T06:23:06.491Z,99781.88
2018-04-30T06:25:34.027Z,99779.40
2018-04-30T06:28:02.383Z,99776.62
2018-04-30T06:30:29.965Z,99765.71
2018-04-30T06:32:57.390Z,99762.58
2018-04-30T06:35:24.821Z,99757.48
2018-04-30T06:37:52.363Z,99754.13
2018-04-30T06:40:20.003Z,99749.84
2018-04-30T06:42:47.448Z,99741.91
2018-04-30T06:45:14.862Z,99742.72
2018-04-30T06:47:46.058Z,99751.02
2018-04-30T06:50:13.477Z,99742.55
2018-04-30T06:52:40.973Z,99745.50
2018-04-30T06:55:08.383Z,99743.44
2018-04-30T06:57:35.827Z,99744.94
2018-04-30T07:00:03.242Z,99765.11
2018-04-30T07:02:30.978Z,99795.48
2018-04-30T07:04:58.458Z,99816.02
2018-04-30T07:07:25.898Z,99830.03
2018-04-30T07:09:54.214Z,99848.13
2018-04-30T07:12:22.665Z,99871.25
2018-04-30T07:14:50.098Z,99883.45
2018-04-30T07:17:17.587Z,99877.31
2018-04-30T07:19:45.028Z,99876.10
2018-04-30T07:22:12.434Z,99877.48
2018-04-30T07:24:39.877Z,99859.34
2018-04-30T07:27:07.309Z,99854.21
2018-04-30T07:29:34.754Z,99847.33
2018-04-30T07:32:02.183Z,99832.48
2018-04-30T07:34:29.617Z,99840.81
2018-04-30T07:36:57.034Z,99834.34
2018-04-30T07:39:24.477Z,99818.13
2018-04-30T07:41:51.898Z,99811.13
2018-04-30T07:44:19.333Z,99794.14
2018-04-30T07:46:46.756Z,99793.66
2018-04-30T07:49:14.251Z,99830.06
2018-04-30T07:51:41.630Z,99829.14
2018-04-30T07:54:09.125Z,99815.25
2018-04-30T07:56:36.572Z,99825.28
2018-04-30T07:59:04.068Z,99832.13
2018-04-30T08:01:31.587Z,99802.55
2018-04-30T08:03:59.074Z,99821.30
2018-04-30T08:06:26.492Z,99809.68
2018-04-30T08:08:53.938Z,99805.13
2018-04-30T08:11:21.358Z,99822.87
2018-04-30T08:13:48.806Z,99818.04
2018-04-30T08:16:16.245Z,99811.74
2018-04-30T08:18:43.724Z,99825.45
2018-04-30T08:21:11.134Z,99840.11
2018-04-30T08:23:38.610Z,99819.70
2018-04-30T08:26:06.981Z,99790.99
2018-04-30T08:28:35.329Z,99802.00
2018-04-30T08:31:02.776Z,99816.06
2018-04-30T08:33:30.189Z,99810.00
2018-04-30T08:35:57.734Z,99815.74
2018-04-30T08:38:25.157Z,99811.06
2018-04-30T08:40:52.594Z,99816.27
2018-04-30T08:43:20.016Z,99819.19
2018-04-30T08:45:47.454Z,99806.79
2018-04-30T08:48:14.921Z,99817.83
2018-04-30T08:50:42.366Z,99820.13
2018-04-30T08:53:09.829Z,99811.20
2018-04-30T08:55:37.269Z,99814.49
2018-04-30T08:58:04.747Z,99797.42
2018-04-30T09:00:32.326Z,99808.58
2018-04-30T09:02:59.624Z,99804.75
2018-04-30T09:05:28.005Z,99801.19
2018-04-30T09:07:55.445Z,99806.71
2018-04-30T09:10:22.869Z,99804.55
2018-04-30T09:12:50.300Z,99798.59
2018-04-30T09:15:17.710Z,99808.88
2018-04-30T09:17:45.153Z,99801.22
2018-04-30T09:20:12.675Z,99796.63
2018-04-30T09:22:40.130Z,99790.80
2018-04-30T09:25:07.557Z,99797.42
2018-04-30T09:27:35.007Z,99798.49
2018-04-30T09:30:02.414Z,99800.58
2018-04-30T09:32:29.949Z,99789.57
2018-04-30T09:34:57.378Z,99782.47
2018-04-30T09:37:24.821Z,99782.27
2018-04-30T09:39:52.237Z,99786.42
2018-04-30T09:42:19.686Z,99785.05
2018-04-30T09:44:47.115Z,99793.38
2018-04-30T09:47:14.579Z,99788.91
2018-04-30T09:49:41.990Z,99791.34
2018-04-30T09:52:09.406Z,99791.78
2018-04-30T09:54:36.847Z,99779.59
2018-04-30T09:57:04.257Z,99774.68
2018-04-30T09:59:31.707Z,99768.64
2018-04-30T10:01:59.121Z,99770.72
2018-04-30T10:04:26.558Z,99775.22
2018-04-30T10:06:53.970Z,99775.09
2018-04-30T10:09:21.417Z,99772.08
2018-04-30T10:11:48.829Z,99777.85
2018-04-30T10:14:16.318Z,99778.50
2018-04-30T10:16:43.741Z,99782.63
2018-04-30T10:19:12.077Z,99783.21
2018-04-30T10:21:39.498Z,99783.22
2018-04-30T10:24:07.059Z,99785.39
2018-04-30T10:26:34.470Z,99783.67
2018-04-30T10:29:01.893Z,99801.75
2018-04-30T10:31:29.396Z,99791.88
2018-04-30T10:33:56.790Z,99800.86
2018-04-30T10:36:24.245Z,99805.97
2018-04-30T10:38:51.657Z,99812.66
2018-04-30T10:41:19.103Z,99811.29
2018-04-30T10:43:46.618Z,99815.45
2018-04-30T10:46:14.070Z,99809.14
2018-04-30T10:48:41.481Z,99810.72
2018-04-30T10:51:08.981Z,99807.79
2018-04-30T10:53:36.402Z,99815.29
2018-04-30T10:56:03.902Z,99806.92
2018-04-30T10:58:31.322Z,99815.05
2018-04-30T11:00:59.726Z,99814.03
2018-04-30T11:03:27.137Z,99816.53
2018-04-30T11:05:54.589Z,99804.88
2018-04-30T11:08:22.014Z,99805.42
2018-04-30T11:10:49.421Z,99807.32
2018-04-30T11:13:16.867Z,99804.78
2018-04-30T11:15:44.382Z,99806.11
2018-04-30T11:18:11.837Z,99803.63
2018-04-30T11:20:39.249Z,99804.34
2018-04-30T11:23:06.694Z,99805.55
2018-04-30T11:25:34.211Z,99802.03
2018-04-30T11:28:01.659Z,99804.23
2018-04-30T11:30:29.069Z,99799.67
2018-04-30T11:32:56.519Z,99806.20
2018-04-30T11:35:24.022Z,99798.21
2018-04-30T11:37:51.480Z,99802.13
2018-04-30T11:40:19.925Z,99800.64
2018-04-30T11:42:47.373Z,99805.08
2018-04-30T11:45:14.804Z,99799.56
2018-04-30T11:47:42.250Z,99802.13
2018-04-30T11:50:09.667Z,99807.53
2018-04-30T11:52:37.133Z,99804.53
2018-04-30T11:55:04.566Z,99806.16
2018-04-30T11:57:31.982Z,99807.55
2018-04-30T11:59:59.417Z,99805.55
2018-04-30T12:02:26.911Z,99806.17
2018-04-30T12:04:54.352Z,99811.59
2018-04-30T12:07:21.738Z,99823.06
2018-04-30T12:09:49.245Z,99815.73
2018-04-30T12:12:16.670Z,99826.57
2018-04-30T12:14:44.103Z,99837.86
2018-04-30T12:17:11.612Z,99833.95
2018-04-30T12:19:39.954Z,99841.34
2018-04-30T12:22:07.411Z,99840.48
2018-04-30T12:24:34.818Z,99836.61
2018-04-30T12:27:02.246Z,99846.77
2018-04-30T12:29:29.694Z,99853.03
2018-04-30T12:31:57.114Z,99859.03
2018-04-30T12:34:24.633Z,99859.95
2018-04-30T12:36:52.090Z,99871.11
2018-04-30T12:39:19.649Z,99880.99
2018-04-30T12:41:47.089Z,99889.81
2018-04-30T12:44:14.529Z,99892.81
2018-04-30T12:46:41.984Z,99904.52
2018-04-30T12:49:09.414Z,99904.25
2018-04-30T12:51:37.835Z,99909.31
2018-04-30T12:54:05.305Z,99906.40
2018-04-30T12:56:32.857Z,99905.06
2018-04-30T12:59:00.314Z,99908.75
2018-04-30T13:01:27.788Z,99920.72
2018-04-30T13:09:37.576Z,99922.08
2018-04-30T13:12:05.105Z,99927.88
2018-04-30T13:14:32.542Z,99936.75
2018-04-30T13:16:59.985Z,99933.25
2018-04-30T13:19:27.497Z,99931.28
2018-04-30T13:21:54.937Z,99926.16
2018-04-30T13:24:22.360Z,99931.06
2018-04-30T13:26:51.901Z,99925.70
2018-04-30T13:29:19.361Z,99923.12
2018-04-30T13:31:46.840Z,99932.24
2018-04-30T13:34:15.486Z,99939.37
2018-04-30T13:36:44.189Z,99935.52
2018-04-30T13:39:12.662Z,99936.30
2018-04-30T13:41:40.097Z,99944.61
2018-04-30T13:44:07.587Z,99947.18
2018-04-30T13:46:35.000Z,99947.05
2018-04-30T13:49:02.454Z,99939.37
2018-04-30T13:51:29.868Z,99942.89
2018-04-30T13:53:57.323Z,99951.36
2018-04-30T13:56:24.767Z,99945.37
2018-04-30T13:58:52.209Z,99962.80
2018-04-30T14:01:19.743Z,99955.86
2018-04-30T14:03:47.242Z,99946.55
2018-04-30T14:06:14.665Z,99955.46
2018-04-30T14:08:43.078Z,99960.61
2018-04-30T14:11:10.537Z,99958.73
2018-04-30T14:13:38.086Z,99962.84
2018-04-30T14:16:05.583Z,99965.70
2018-04-30T14:18:33.107Z,99953.46
2018-04-30T14:21:00.518Z,99953.03
2018-04-30T14:23:27.954Z,99960.31
2018-04-30T14:25:55.403Z,99953.28
2018-04-30T14:28:22.813Z,99958.19
2018-04-30T14:30:50.257Z,99959.08
2018-04-30T14:33:17.685Z,99963.73
2018-04-30T14:35:45.121Z,99958.98
2018-04-30T14:38:12.583Z,99964.23
2018-04-30T14:40:40.033Z,99960.05
2018-04-30T14:43:07.446Z,99962.25
2018-04-30T14:45:34.924Z,99967.80
2018-04-30T14:48:04.289Z,99976.52
2018-04-30T14:50:31.729Z,99990.83
2018-04-30T14:52:59.233Z,99995.78
2018-04-30T14:55:26.688Z,99991.16
2018-04-30T14:57:54.109Z,99990.16
2018-04-30T15:00:21.533Z,99993.37
2018-04-30T15:02:52.112Z,100003.88
2018-04-30T15:05:19.539Z,99999.41
2018-04-30T15:07:47.333Z,99996.74
2018-04-30T15:10:15.742Z,100002.21
2018-04-30T15:12:44.072Z,99998.36
2018-04-30T15:15:11.527Z,99999.95
2018-04-30T15:17:39.028Z,99999.36
2018-04-30T15:20:06.456Z,100000.63
2018-04-30T15:22:33.899Z,100001.45
2018-04-30T15:25:01.321Z,99999.80
2018-04-30T15:27:28.785Z,100005.80
2018-04-30T15:29:56.211Z,100003.00
2018-04-30T15:32:23.684Z,100013.39
2018-04-30T15:34:51.106Z,100013.25
2018-04-30T15:37:18.578Z,100016.17
2018-04-30T15:39:50.221Z,100019.42
2018-04-30T15:42:17.736Z,100021.41
2018-04-30T15:44:45.161Z,100021.84
2018-04-30T15:47:13.835Z,100024.89
2018-04-30T15:49:41.469Z,100026.07
2018-04-30T15:52:11.494Z,100023.19
2018-04-30T15:54:39.052Z,100025.75
2018-04-30T15:57:08.276Z,100031.13
2018-04-30T15:59:37.851Z,100033.34
2018-04-30T16:02:09.203Z,100032.41
2018-04-30T16:07:23.896Z,100012.19
2018-04-30T16:09:51.355Z,100018.61
2018-04-30T16:27:23.388Z,100019.95
2018-04-30T16:29:57.893Z,100023.86
2018-04-30T16:32:25.311Z,100018.34
2018-04-30T16:34:53.671Z,100008.33
2018-04-30T16:37:21.094Z,100013.61
2018-04-30T16:39:49.514Z,100003.47
2018-04-30T16:42:31.465Z,100004.03
2018-04-30T16:45:00.608Z,100008.75
2018-04-30T16:48:01.163Z,100022.11
2018-04-30T16:50:36.473Z,100010.94
2018-04-30T16:53:24.015Z,100021.73
2018-04-30T16:55:55.670Z,100020.48
2018-04-30T16:58:23.264Z,100017.33
2018-04-30T17:10:09.867Z,100028.67
2018-04-30T17:12:37.334Z,100024.30
2018-04-30T17:15:05.690Z,100029.03
2018-04-30T17:17:33.140Z,100031.95
2018-04-30T17:20:00.562Z,100035.66
2018-04-30T17:22:28.023Z,100033.25
2018-04-30T17:25:01.458Z,100030.00
2018-04-30T17:27:28.910Z,100034.64
2018-04-30T17:29:57.294Z,100024.30
2018-04-30T17:32:25.698Z,100025.39
2018-04-30T17:35:02.472Z,100036.93
2018-04-30T17:37:32.252Z,100041.55
2018-04-30T17:40:00.757Z,100046.05
2018-04-30T17:42:28.442Z,100043.38
2018-04-30T17:44:56.248Z,100040.74
2018-04-30T17:47:23.926Z,100046.63
2018-04-30T17:49:53.906Z,100049.88
2018-04-30T17:52:23.683Z,100055.26
2018-04-30T17:54:56.474Z,100055.03
2018-04-30T17:57:26.876Z,100057.68
2018-04-30T18:00:08.748Z,100061.67
2018-04-30T18:02:42.058Z,100063.27
2018-04-30T18:07:47.548Z,100071.20
2018-04-30T18:13:15.290Z,100069.70
2018-04-30T18:19:02.635Z,100078.83
2018-04-30T18:21:32.474Z,100081.43
2018-04-30T18:24:14.998Z,100082.02
2018-04-30T18:26:48.958Z,100080.05
2018-04-30T18:29:35.575Z,100080.22
2018-04-30T19:14:26.400Z,100132.91
2018-04-30T19:16:53.803Z,100128.89
2018-04-30T19:19:22.187Z,100128.30
2018-04-30T19:30:55.076Z,100143.62
2018-04-30T19:33:23.155Z,100154.39
2018-04-30T19:35:52.033Z,100149.48
2018-04-30T19:41:33.935Z,100143.56
2018-04-30T19:44:04.364Z,100150.58
2018-04-30T19:46:32.883Z,100146.82
2018-04-30T19:49:00.567Z,100151.11
2018-04-30T19:51:38.480Z,100147.58
2018-04-30T19:54:13.195Z,100154.81
2018-04-30T19:56:40.884Z,100156.86
2018-04-30T19:59:08.570Z,100153.09
2018-04-30T20:01:37.943Z,100146.58
2018-04-30T20:04:05.550Z,100154.73
2018-04-30T20:06:33.181Z,100151.78
2018-04-30T20:09:00.949Z,100156.55
2018-04-30T20:11:28.465Z,100154.72
2018-04-30T20:13:55.915Z,100155.56
2018-04-30T20:16:24.250Z,100150.13
2018-04-30T20:30:45.410Z,100161.80
2018-04-30T20:33:26.737Z,100163.95
2018-04-30T20:35:54.932Z,100160.38
2018-04-30T20:38:23.263Z,100160.31
2018-04-30T20:40:50.720Z,100160.05
2018-04-30T20:43:18.131Z,100158.63
2018-04-30T20:45:45.583Z,100155.51
2018-04-30T20:48:13.010Z,100154.91
2018-04-30T20:50:44.401Z,100163.70
2018-04-30T20:53:12.746Z,100154.08
2018-04-30T20:55:40.216Z,100153.72
2018-04-30T20:58:07.645Z,100159.33
2018-04-30T21:00:35.104Z,100161.17
2018-04-30T21:03:02.527Z,100162.02
2018-04-30T21:05:29.972Z,100161.33
2018-04-30T21:07:57.391Z,100156.65
2018-04-30T21:10:24.839Z,100153.91
2018-04-30T21:12:52.262Z,100146.89
2018-04-30T21:15:20.674Z,100151.32
2018-04-30T21:17:51.177Z,100152.89
2018-04-30T21:20:18.640Z,100156.42
2018-04-30T21:22:46.119Z,100158.18
2018-04-30T21:25:14.468Z,100160.89
2018-04-30T21:27:41.920Z,100159.00
2018-04-30T21:30:09.331Z,100155.91
2018-04-30T21:32:36.780Z,100155.10
2018-04-30T21:35:04.199Z,100155.52
2018-04-30T21:37:31.639Z,100153.70
2018-04-30T21:39:59.057Z,100151.33
2018-04-30T21:42:26.500Z,100149.56
2018-04-30T21:44:53.921Z,100144.10
2018-04-30T21:47:21.432Z,100145.70
2018-04-30T21:50:05.447Z,100144.59
2018-04-30T21:52:32.885Z,100141.93
2018-04-30T21:55:00.313Z,100133.14
2018-04-30T21:57:34.119Z,100132.23
2018-04-30T22:00:02.430Z,100131.62
2018-04-30T22:05:39.678Z,100124.02
2018-04-30T22:14:26.118Z,100124.84
2018-04-30T22:16:57.199Z,100118.69
2018-04-30T22:19:24.621Z,100113.80
2018-04-30T22:21:52.033Z,100116.34
2018-04-30T22:24:19.477Z,100115.36
2018-04-30T22:26:46.892Z,100117.73
2018-04-30T22:29:14.326Z,100121.02
2018-04-30T22:31:41.746Z,100123.22
2018-04-30T22:34:09.184Z,100127.08
2018-04-30T22:36:36.594Z,100122.35
2018-04-30T22:39:04.035Z,100123.70
2018-04-30T22:41:31.454Z,100120.22
2018-04-30T22:43:58.897Z,100119.43
2018-04-30T22:46:26.314Z,100123.47
2018-04-30T22:48:53.758Z,100119.31
2018-04-30T22:51:21.179Z,100116.84
2018-04-30T22:53:52.238Z,100112.45
2018-04-30T22:56:19.660Z,100114.72
2018-04-30T22:58:47.066Z,100112.42
2018-04-30T23:01:14.514Z,100121.63
2018-04-30T23:03:41.937Z,100112.09
2018-04-30T23:06:09.369Z,100115.74
2018-04-30T23:08:37.694Z,100108.58
2018-04-30T23:11:05.146Z,100114.98
2018-04-30T23:13:33.449Z,100119.67
2018-04-30T23:16:00.907Z,100116.39
2018-04-30T23:18:28.319Z,100116.57
2018-04-30T23:20:55.769Z,100121.53
2018-04-30T23:23:23.178Z,100117.68
2018-04-30T23:25:50.627Z,100116.48
2018-04-30T23:28:18.038Z,100116.03
2018-04-30T23:30:45.494Z,100117.01
2018-04-30T23:33:12.906Z,100112.11
2018-04-30T23:35:41.254Z,100119.14
2018-04-30T23:38:13.273Z,100111.19
2018-04-30T23:40:40.713Z,100102.00
2018-04-30T23:43:08.129Z,100101.63
2018-04-30T23:45:35.574Z,100092.97
2018-04-30T23:48:02.987Z,100096.34
2018-04-30T23:50:30.422Z,100097.49
2018-04-30T23:52:57.848Z,100090.42
2018-04-30T23:55:25.309Z,100083.30
2018-04-30T23:57:52.718Z,100083.16
